sensor_id;sensor_type;location;lat;lon;timestamp;P1;durP1;ratioP1;P2;durP2;ratioP2
55497;SDS011;41357;52.806;18.268;2022-11-15T00:00:54;82.88;;;25.48;;
55497;SDS011;41357;52.806;18.268;2022-11-15T00:03:21;89.00;;;27.50;;
55497;SDS011;41357;52.806;18.268;2022-11-15T00:05:47;117.65;;;30.75;;
55497;SDS011;41357;52.806;18.268;2022-11-15T00:08:14;83.07;;;23.88;;
55497;SDS011;41357;52.806;18.268;2022-11-15T00:10:40;122.40;;;32.05;;
55497;SDS011;41357;52.806;18.268;2022-11-15T00:13:07;119.00;;;31.95;;
55497;SDS011;41357;52.806;18.268;2022-11-15T00:15:37;105.90;;;29.05;;
55497;SDS011;41357;52.806;18.268;2022-11-15T00:18:03;125.85;;;31.48;;
55497;SDS011;41357;52.806;18.268;2022-11-15T00:20:29;111.53;;;30.15;;
55497;SDS011;41357;52.806;18.268;2022-11-15T00:22:56;109.43;;;29.92;;
55497;SDS011;41357;52.806;18.268;2022-11-15T00:25:22;102.20;;;27.67;;
55497;SDS011;41357;52.806;18.268;2022-11-15T00:27:48;112.63;;;29.25;;
55497;SDS011;41357;52.806;18.268;2022-11-15T00:30:14;81.97;;;26.60;;
55497;SDS011;41357;52.806;18.268;2022-11-15T00:32:40;124.97;;;31.05;;
55497;SDS011;41357;52.806;18.268;2022-11-15T00:35:06;125.38;;;38.45;;
55497;SDS011;41357;52.806;18.268;2022-11-15T00:37:33;104.72;;;28.88;;
55497;SDS011;41357;52.806;18.268;2022-11-15T00:39:59;120.95;;;32.63;;
55497;SDS011;41357;52.806;18.268;2022-11-15T00:42:25;144.23;;;33.22;;
55497;SDS011;41357;52.806;18.268;2022-11-15T00:44:51;123.20;;;28.55;;
55497;SDS011;41357;52.806;18.268;2022-11-15T00:47:17;126.88;;;31.73;;
55497;SDS011;41357;52.806;18.268;2022-11-15T00:49:43;137.75;;;29.58;;
55497;SDS011;41357;52.806;18.268;2022-11-15T00:52:09;126.57;;;30.70;;
55497;SDS011;41357;52.806;18.268;2022-11-15T00:54:35;136.73;;;33.05;;
55497;SDS011;41357;52.806;18.268;2022-11-15T00:57:01;111.45;;;29.00;;
55497;SDS011;41357;52.806;18.268;2022-11-15T00:59:28;99.40;;;28.83;;
55497;SDS011;41357;52.806;18.268;2022-11-15T01:01:54;121.13;;;30.10;;
55497;SDS011;41357;52.806;18.268;2022-11-15T01:04:20;97.65;;;25.00;;
55497;SDS011;41357;52.806;18.268;2022-11-15T01:06:46;96.57;;;27.08;;
55497;SDS011;41357;52.806;18.268;2022-11-15T01:09:13;127.47;;;30.17;;
55497;SDS011;41357;52.806;18.268;2022-11-15T01:11:40;127.20;;;32.95;;
55497;SDS011;41357;52.806;18.268;2022-11-15T01:14:06;105.25;;;25.98;;
55497;SDS011;41357;52.806;18.268;2022-11-15T01:16:32;114.40;;;27.42;;
55497;SDS011;41357;52.806;18.268;2022-11-15T01:18:59;94.47;;;24.52;;
55497;SDS011;41357;52.806;18.268;2022-11-15T01:21:25;110.60;;;26.95;;
55497;SDS011;41357;52.806;18.268;2022-11-15T01:23:54;106.47;;;29.33;;
55497;SDS011;41357;52.806;18.268;2022-11-15T01:26:21;135.55;;;31.75;;
55497;SDS011;41357;52.806;18.268;2022-11-15T01:28:47;109.60;;;27.23;;
55497;SDS011;41357;52.806;18.268;2022-11-15T01:31:15;119.00;;;25.52;;
55497;SDS011;41357;52.806;18.268;2022-11-15T01:33:41;127.45;;;30.15;;
55497;SDS011;41357;52.806;18.268;2022-11-15T01:36:10;99.43;;;27.13;;
55497;SDS011;41357;52.806;18.268;2022-11-15T01:38:37;130.05;;;28.10;;
55497;SDS011;41357;52.806;18.268;2022-11-15T01:41:03;128.40;;;29.08;;
55497;SDS011;41357;52.806;18.268;2022-11-15T01:46:04;103.57;;;25.20;;
55497;SDS011;41357;52.806;18.268;2022-11-15T01:48:32;122.68;;;27.63;;
55497;SDS011;41357;52.806;18.268;2022-11-15T01:51:09;112.05;;;28.17;;
55497;SDS011;41357;52.806;18.268;2022-11-15T01:53:36;94.40;;;26.23;;
55497;SDS011;41357;52.806;18.268;2022-11-15T01:56:04;127.32;;;25.92;;
55497;SDS011;41357;52.806;18.268;2022-11-15T01:58:31;121.72;;;28.48;;
55497;SDS011;41357;52.806;18.268;2022-11-15T02:00:58;139.13;;;30.52;;
55497;SDS011;41357;52.806;18.268;2022-11-15T02:03:26;126.82;;;28.30;;
55497;SDS011;41357;52.806;18.268;2022-11-15T02:05:54;112.15;;;26.73;;
55497;SDS011;41357;52.806;18.268;2022-11-15T02:08:20;115.18;;;27.33;;
55497;SDS011;41357;52.806;18.268;2022-11-15T02:10:46;113.30;;;27.30;;
55497;SDS011;41357;52.806;18.268;2022-11-15T02:13:15;114.80;;;26.80;;
55497;SDS011;41357;52.806;18.268;2022-11-15T02:15:49;121.28;;;28.92;;
55497;SDS011;41357;52.806;18.268;2022-11-15T02:18:22;121.38;;;27.40;;
55497;SDS011;41357;52.806;18.268;2022-11-15T02:23:47;130.68;;;28.92;;
55497;SDS011;41357;52.806;18.268;2022-11-15T02:29:06;129.27;;;28.88;;
55497;SDS011;41357;52.806;18.268;2022-11-15T02:31:50;134.50;;;32.28;;
55497;SDS011;41357;52.806;18.268;2022-11-15T02:34:27;142.25;;;31.40;;
55497;SDS011;41357;52.806;18.268;2022-11-15T02:41:54;112.47;;;26.52;;
55497;SDS011;41357;52.806;18.268;2022-11-15T02:44:24;93.70;;;23.15;;
55497;SDS011;41357;52.806;18.268;2022-11-15T02:46:54;112.43;;;27.80;;
55497;SDS011;41357;52.806;18.268;2022-11-15T02:49:52;108.88;;;26.17;;
55497;SDS011;41357;52.806;18.268;2022-11-15T02:52:20;97.18;;;23.52;;
55497;SDS011;41357;52.806;18.268;2022-11-15T02:54:59;96.15;;;25.40;;
55497;SDS011;41357;52.806;18.268;2022-11-15T03:00:04;103.05;;;23.27;;
55497;SDS011;41357;52.806;18.268;2022-11-15T03:13:31;123.90;;;27.52;;
55497;SDS011;41357;52.806;18.268;2022-11-15T03:15:56;97.43;;;22.20;;
55497;SDS011;41357;52.806;18.268;2022-11-15T03:18:27;105.43;;;24.48;;
55497;SDS011;41357;52.806;18.268;2022-11-15T03:20:55;94.80;;;25.10;;
55497;SDS011;41357;52.806;18.268;2022-11-15T03:23:23;96.57;;;22.70;;
55497;SDS011;41357;52.806;18.268;2022-11-15T03:25:50;83.57;;;23.40;;
55497;SDS011;41357;52.806;18.268;2022-11-15T03:28:22;93.03;;;22.98;;
55497;SDS011;41357;52.806;18.268;2022-11-15T03:30:49;83.07;;;22.80;;
55497;SDS011;41357;52.806;18.268;2022-11-15T03:33:16;90.93;;;23.10;;
55497;SDS011;41357;52.806;18.268;2022-11-15T03:35:42;105.90;;;23.77;;
55497;SDS011;41357;52.806;18.268;2022-11-15T03:45:50;76.05;;;20.80;;
55497;SDS011;41357;52.806;18.268;2022-11-15T03:48:18;106.82;;;22.38;;
55497;SDS011;41357;52.806;18.268;2022-11-15T03:50:46;100.78;;;23.58;;
55497;SDS011;41357;52.806;18.268;2022-11-15T03:53:12;92.82;;;24.85;;
55497;SDS011;41357;52.806;18.268;2022-11-15T03:55:39;114.75;;;25.80;;
55497;SDS011;41357;52.806;18.268;2022-11-15T03:58:05;96.00;;;23.48;;
55497;SDS011;41357;52.806;18.268;2022-11-15T04:00:31;112.55;;;27.33;;
55497;SDS011;41357;52.806;18.268;2022-11-15T04:02:57;103.28;;;25.92;;
55497;SDS011;41357;52.806;18.268;2022-11-15T04:05:24;111.63;;;28.48;;
55497;SDS011;41357;52.806;18.268;2022-11-15T04:07:50;89.68;;;24.80;;
55497;SDS011;41357;52.806;18.268;2022-11-15T04:10:16;112.40;;;26.58;;
55497;SDS011;41357;52.806;18.268;2022-11-15T04:12:43;117.32;;;30.20;;
55497;SDS011;41357;52.806;18.268;2022-11-15T04:15:21;102.63;;;26.92;;
55497;SDS011;41357;52.806;18.268;2022-11-15T04:17:48;100.32;;;26.20;;
55497;SDS011;41357;52.806;18.268;2022-11-15T04:20:18;115.28;;;27.45;;
55497;SDS011;41357;52.806;18.268;2022-11-15T04:23:05;91.07;;;24.95;;
55497;SDS011;41357;52.806;18.268;2022-11-15T04:25:51;98.88;;;25.90;;
55497;SDS011;41357;52.806;18.268;2022-11-15T04:28:17;109.47;;;24.65;;
55497;SDS011;41357;52.806;18.268;2022-11-15T04:30:44;136.02;;;37.65;;
55497;SDS011;41357;52.806;18.268;2022-11-15T04:33:10;125.68;;;36.42;;
55497;SDS011;41357;52.806;18.268;2022-11-15T04:35:36;121.32;;;30.58;;
55497;SDS011;41357;52.806;18.268;2022-11-15T04:38:03;113.22;;;28.90;;
55497;SDS011;41357;52.806;18.268;2022-11-15T04:40:29;100.43;;;26.05;;
55497;SDS011;41357;52.806;18.268;2022-11-15T04:42:55;138.27;;;34.25;;
55497;SDS011;41357;52.806;18.268;2022-11-15T04:45:22;146.23;;;31.45;;
55497;SDS011;41357;52.806;18.268;2022-11-15T04:47:48;129.60;;;29.15;;
55497;SDS011;41357;52.806;18.268;2022-11-15T04:50:14;138.38;;;28.70;;
55497;SDS011;41357;52.806;18.268;2022-11-15T04:52:41;133.65;;;29.58;;
55497;SDS011;41357;52.806;18.268;2022-11-15T04:55:08;118.82;;;29.55;;
55497;SDS011;41357;52.806;18.268;2022-11-15T04:57:35;110.22;;;28.67;;
55497;SDS011;41357;52.806;18.268;2022-11-15T05:00:03;123.18;;;30.73;;
55497;SDS011;41357;52.806;18.268;2022-11-15T05:02:29;142.15;;;26.85;;
55497;SDS011;41357;52.806;18.268;2022-11-15T05:05:15;115.30;;;27.58;;
55497;SDS011;41357;52.806;18.268;2022-11-15T05:07:41;123.05;;;25.13;;
55497;SDS011;41357;52.806;18.268;2022-11-15T05:10:07;124.45;;;25.08;;
55497;SDS011;41357;52.806;18.268;2022-11-15T05:12:34;104.65;;;24.15;;
55497;SDS011;41357;52.806;18.268;2022-11-15T05:15:00;130.98;;;24.75;;
55497;SDS011;41357;52.806;18.268;2022-11-15T05:17:26;110.32;;;25.83;;
55497;SDS011;41357;52.806;18.268;2022-11-15T05:19:53;107.50;;;25.48;;
55497;SDS011;41357;52.806;18.268;2022-11-15T05:22:19;128.68;;;25.85;;
55497;SDS011;41357;52.806;18.268;2022-11-15T05:24:45;104.05;;;26.15;;
55497;SDS011;41357;52.806;18.268;2022-11-15T05:27:11;128.35;;;26.27;;
55497;SDS011;41357;52.806;18.268;2022-11-15T05:29:37;145.45;;;24.10;;
55497;SDS011;41357;52.806;18.268;2022-11-15T05:32:06;123.55;;;30.20;;
55497;SDS011;41357;52.806;18.268;2022-11-15T05:34:34;126.15;;;25.27;;
55497;SDS011;41357;52.806;18.268;2022-11-15T05:37:00;122.55;;;24.48;;
55497;SDS011;41357;52.806;18.268;2022-11-15T05:39:26;115.07;;;23.38;;
55497;SDS011;41357;52.806;18.268;2022-11-15T05:41:55;132.43;;;26.38;;
55497;SDS011;41357;52.806;18.268;2022-11-15T05:44:22;123.75;;;25.55;;
55497;SDS011;41357;52.806;18.268;2022-11-15T05:46:49;162.70;;;27.50;;
55497;SDS011;41357;52.806;18.268;2022-11-15T05:49:18;125.00;;;22.92;;
55497;SDS011;41357;52.806;18.268;2022-11-15T05:51:45;148.95;;;25.23;;
55497;SDS011;41357;52.806;18.268;2022-11-15T05:54:13;187.68;;;29.27;;
55497;SDS011;41357;52.806;18.268;2022-11-15T05:56:39;194.25;;;25.42;;
55497;SDS011;41357;52.806;18.268;2022-11-15T05:59:05;138.98;;;24.08;;
55497;SDS011;41357;52.806;18.268;2022-11-15T06:01:33;129.50;;;26.77;;
55497;SDS011;41357;52.806;18.268;2022-11-15T06:03:59;164.35;;;24.15;;
55497;SDS011;41357;52.806;18.268;2022-11-15T06:06:26;133.02;;;23.52;;
55497;SDS011;41357;52.806;18.268;2022-11-15T06:08:52;121.55;;;25.25;;
55497;SDS011;41357;52.806;18.268;2022-11-15T06:11:19;130.63;;;23.35;;
55497;SDS011;41357;52.806;18.268;2022-11-15T06:13:45;160.00;;;25.08;;
55497;SDS011;41357;52.806;18.268;2022-11-15T06:16:11;156.57;;;25.42;;
55497;SDS011;41357;52.806;18.268;2022-11-15T06:18:37;163.25;;;25.00;;
55497;SDS011;41357;52.806;18.268;2022-11-15T06:21:03;160.55;;;26.85;;
55497;SDS011;41357;52.806;18.268;2022-11-15T06:23:33;142.50;;;30.70;;
55497;SDS011;41357;52.806;18.268;2022-11-15T06:26:00;181.38;;;24.98;;
55497;SDS011;41357;52.806;18.268;2022-11-15T06:28:29;176.70;;;24.73;;
55497;SDS011;41357;52.806;18.268;2022-11-15T06:30:56;182.95;;;25.73;;
55497;SDS011;41357;52.806;18.268;2022-11-15T06:33:22;148.55;;;27.20;;
55497;SDS011;41357;52.806;18.268;2022-11-15T06:35:48;163.82;;;23.25;;
55497;SDS011;41357;52.806;18.268;2022-11-15T06:38:14;182.70;;;24.90;;
55497;SDS011;41357;52.806;18.268;2022-11-15T06:40:40;212.85;;;25.70;;
55497;SDS011;41357;52.806;18.268;2022-11-15T06:43:06;187.38;;;28.35;;
55497;SDS011;41357;52.806;18.268;2022-11-15T06:45:33;151.18;;;28.05;;
55497;SDS011;41357;52.806;18.268;2022-11-15T06:47:59;127.88;;;23.88;;
55497;SDS011;41357;52.806;18.268;2022-11-15T06:50:25;143.93;;;23.77;;
55497;SDS011;41357;52.806;18.268;2022-11-15T06:52:51;136.30;;;24.98;;
55497;SDS011;41357;52.806;18.268;2022-11-15T06:55:17;156.80;;;23.65;;
55497;SDS011;41357;52.806;18.268;2022-11-15T06:57:47;180.48;;;28.58;;
55497;SDS011;41357;52.806;18.268;2022-11-15T07:00:13;118.70;;;22.65;;
55497;SDS011;41357;52.806;18.268;2022-11-15T07:02:40;150.43;;;23.13;;
55497;SDS011;41357;52.806;18.268;2022-11-15T07:05:07;210.00;;;27.00;;
55497;SDS011;41357;52.806;18.268;2022-11-15T07:07:33;133.13;;;21.40;;
55497;SDS011;41357;52.806;18.268;2022-11-15T07:09:59;175.95;;;28.52;;
55497;SDS011;41357;52.806;18.268;2022-11-15T07:12:25;162.57;;;37.78;;
55497;SDS011;41357;52.806;18.268;2022-11-15T07:14:51;114.22;;;22.05;;
55497;SDS011;41357;52.806;18.268;2022-11-15T07:17:18;134.40;;;22.85;;
55497;SDS011;41357;52.806;18.268;2022-11-15T07:19:44;140.90;;;22.65;;
55497;SDS011;41357;52.806;18.268;2022-11-15T07:22:10;150.15;;;23.83;;
55497;SDS011;41357;52.806;18.268;2022-11-15T07:24:36;100.43;;;23.20;;
55497;SDS011;41357;52.806;18.268;2022-11-15T07:27:02;165.73;;;24.17;;
55497;SDS011;41357;52.806;18.268;2022-11-15T07:29:28;96.93;;;22.88;;
55497;SDS011;41357;52.806;18.268;2022-11-15T07:31:54;159.77;;;24.92;;
55497;SDS011;41357;52.806;18.268;2022-11-15T07:34:20;130.77;;;21.67;;
55497;SDS011;41357;52.806;18.268;2022-11-15T07:36:47;204.02;;;22.63;;
55497;SDS011;41357;52.806;18.268;2022-11-15T07:39:13;162.57;;;23.33;;
55497;SDS011;41357;52.806;18.268;2022-11-15T07:41:39;157.48;;;23.90;;
55497;SDS011;41357;52.806;18.268;2022-11-15T07:44:05;131.25;;;24.58;;
55497;SDS011;41357;52.806;18.268;2022-11-15T07:46:32;123.75;;;21.95;;
55497;SDS011;41357;52.806;18.268;2022-11-15T07:48:58;136.20;;;24.60;;
55497;SDS011;41357;52.806;18.268;2022-11-15T07:51:24;165.50;;;24.20;;
55497;SDS011;41357;52.806;18.268;2022-11-15T07:53:50;100.07;;;21.58;;
55497;SDS011;41357;52.806;18.268;2022-11-15T07:56:16;89.70;;;19.70;;
55497;SDS011;41357;52.806;18.268;2022-11-15T07:58:42;94.82;;;21.83;;
55497;SDS011;41357;52.806;18.268;2022-11-15T08:01:11;129.05;;;21.92;;
55497;SDS011;41357;52.806;18.268;2022-11-15T08:03:38;132.95;;;22.65;;
55497;SDS011;41357;52.806;18.268;2022-11-15T08:06:04;105.18;;;24.20;;
55497;SDS011;41357;52.806;18.268;2022-11-15T08:08:30;145.55;;;23.05;;
55497;SDS011;41357;52.806;18.268;2022-11-15T08:10:57;122.65;;;24.77;;
55497;SDS011;41357;52.806;18.268;2022-11-15T08:13:23;148.02;;;27.30;;
55497;SDS011;41357;52.806;18.268;2022-11-15T08:15:49;155.18;;;26.08;;
55497;SDS011;41357;52.806;18.268;2022-11-15T08:18:16;204.77;;;37.08;;
55497;SDS011;41357;52.806;18.268;2022-11-15T08:20:42;216.85;;;32.78;;
55497;SDS011;41357;52.806;18.268;2022-11-15T08:23:09;206.63;;;31.88;;
55497;SDS011;41357;52.806;18.268;2022-11-15T08:25:36;186.95;;;29.50;;
55497;SDS011;41357;52.806;18.268;2022-11-15T08:28:04;146.27;;;25.38;;
55497;SDS011;41357;52.806;18.268;2022-11-15T08:30:30;148.60;;;25.50;;
55497;SDS011;41357;52.806;18.268;2022-11-15T08:32:57;118.97;;;22.90;;
55497;SDS011;41357;52.806;18.268;2022-11-15T08:35:24;146.32;;;22.15;;
55497;SDS011;41357;52.806;18.268;2022-11-15T08:37:51;114.88;;;21.90;;
55497;SDS011;41357;52.806;18.268;2022-11-15T08:40:18;107.30;;;23.95;;
55497;SDS011;41357;52.806;18.268;2022-11-15T08:42:47;104.60;;;21.75;;
55497;SDS011;41357;52.806;18.268;2022-11-15T08:45:14;96.05;;;24.23;;
55497;SDS011;41357;52.806;18.268;2022-11-15T08:47:40;124.97;;;24.85;;
55497;SDS011;41357;52.806;18.268;2022-11-15T08:50:07;141.95;;;27.80;;
55497;SDS011;41357;52.806;18.268;2022-11-15T08:52:33;154.80;;;25.88;;
55497;SDS011;41357;52.806;18.268;2022-11-15T08:54:59;115.20;;;22.33;;
55497;SDS011;41357;52.806;18.268;2022-11-15T08:57:28;105.60;;;23.90;;
55497;SDS011;41357;52.806;18.268;2022-11-15T08:59:55;101.40;;;22.30;;
55497;SDS011;41357;52.806;18.268;2022-11-15T09:02:21;116.57;;;24.75;;
55497;SDS011;41357;52.806;18.268;2022-11-15T09:04:47;104.85;;;25.40;;
55497;SDS011;41357;52.806;18.268;2022-11-15T09:07:13;141.95;;;24.20;;
55497;SDS011;41357;52.806;18.268;2022-11-15T09:09:40;123.03;;;26.70;;
55497;SDS011;41357;52.806;18.268;2022-11-15T09:12:06;104.57;;;24.25;;
55497;SDS011;41357;52.806;18.268;2022-11-15T09:14:33;118.72;;;26.38;;
55497;SDS011;41357;52.806;18.268;2022-11-15T09:16:59;111.60;;;24.67;;
55497;SDS011;41357;52.806;18.268;2022-11-15T09:19:26;152.57;;;25.10;;
55497;SDS011;41357;52.806;18.268;2022-11-15T09:21:52;92.55;;;22.17;;
55497;SDS011;41357;52.806;18.268;2022-11-15T09:24:18;118.85;;;23.55;;
55497;SDS011;41357;52.806;18.268;2022-11-15T09:26:44;100.65;;;23.98;;
55497;SDS011;41357;52.806;18.268;2022-11-15T09:29:10;127.15;;;25.08;;
55497;SDS011;41357;52.806;18.268;2022-11-15T09:31:36;106.60;;;27.00;;
55497;SDS011;41357;52.806;18.268;2022-11-15T09:34:03;107.82;;;28.33;;
55497;SDS011;41357;52.806;18.268;2022-11-15T09:36:29;105.15;;;26.10;;
55497;SDS011;41357;52.806;18.268;2022-11-15T09:38:57;91.60;;;26.08;;
55497;SDS011;41357;52.806;18.268;2022-11-15T09:46:42;118.43;;;27.58;;
55497;SDS011;41357;52.806;18.268;2022-11-15T09:49:15;118.32;;;28.45;;
55497;SDS011;41357;52.806;18.268;2022-11-15T09:51:45;152.93;;;28.65;;
55497;SDS011;41357;52.806;18.268;2022-11-15T09:56:48;132.57;;;29.95;;
55497;SDS011;41357;52.806;18.268;2022-11-15T09:59:22;152.27;;;31.55;;
55497;SDS011;41357;52.806;18.268;2022-11-15T10:04:37;161.57;;;30.70;;
55497;SDS011;41357;52.806;18.268;2022-11-15T10:09:54;145.63;;;32.72;;
55497;SDS011;41357;52.806;18.268;2022-11-15T10:12:22;137.05;;;32.65;;
55497;SDS011;41357;52.806;18.268;2022-11-15T10:14:49;152.13;;;33.92;;
55497;SDS011;41357;52.806;18.268;2022-11-15T10:30:35;111.88;;;28.50;;
55497;SDS011;41357;52.806;18.268;2022-11-15T10:35:46;142.55;;;33.10;;
55497;SDS011;41357;52.806;18.268;2022-11-15T10:38:13;138.82;;;34.80;;
55497;SDS011;41357;52.806;18.268;2022-11-15T10:40:39;163.55;;;39.42;;
55497;SDS011;41357;52.806;18.268;2022-11-15T10:45:33;118.57;;;31.23;;
55497;SDS011;41357;52.806;18.268;2022-11-15T10:48:21;115.15;;;28.52;;
55497;SDS011;41357;52.806;18.268;2022-11-15T10:50:47;97.50;;;25.15;;
55497;SDS011;41357;52.806;18.268;2022-11-15T10:55:39;74.47;;;22.17;;
55497;SDS011;41357;52.806;18.268;2022-11-15T10:58:19;101.78;;;24.90;;
55497;SDS011;41357;52.806;18.268;2022-11-15T11:00:46;93.50;;;23.52;;
55497;SDS011;41357;52.806;18.268;2022-11-15T11:05:50;90.43;;;24.60;;
55497;SDS011;41357;52.806;18.268;2022-11-15T11:08:28;93.85;;;26.23;;
55497;SDS011;41357;52.806;18.268;2022-11-15T11:10:57;92.40;;;25.98;;
55497;SDS011;41357;52.806;18.268;2022-11-15T11:13:25;90.65;;;25.38;;
55497;SDS011;41357;52.806;18.268;2022-11-15T11:18:38;68.05;;;20.90;;
55497;SDS011;41357;52.806;18.268;2022-11-15T11:21:10;64.43;;;19.77;;
55497;SDS011;41357;52.806;18.268;2022-11-15T11:23:42;63.97;;;19.50;;
55497;SDS011;41357;52.806;18.268;2022-11-15T11:29:04;61.75;;;20.75;;
55497;SDS011;41357;52.806;18.268;2022-11-15T11:31:36;72.78;;;20.23;;
55497;SDS011;41357;52.806;18.268;2022-11-15T11:34:27;78.55;;;22.30;;
55497;SDS011;41357;52.806;18.268;2022-11-15T11:47:40;65.57;;;19.98;;
55497;SDS011;41357;52.806;18.268;2022-11-15T11:52:57;74.63;;;24.77;;
55497;SDS011;41357;52.806;18.268;2022-11-15T11:58:22;57.45;;;19.98;;
55497;SDS011;41357;52.806;18.268;2022-11-15T12:03:45;67.05;;;21.23;;
55497;SDS011;41357;52.806;18.268;2022-11-15T12:13:56;60.03;;;20.85;;
55497;SDS011;41357;52.806;18.268;2022-11-15T12:16:26;66.32;;;22.92;;
55497;SDS011;41357;52.806;18.268;2022-11-15T12:18:53;69.30;;;22.80;;
55497;SDS011;41357;52.806;18.268;2022-11-15T12:23:50;71.78;;;24.65;;
55497;SDS011;41357;52.806;18.268;2022-11-15T12:26:22;67.05;;;21.75;;
55497;SDS011;41357;52.806;18.268;2022-11-15T12:28:54;59.88;;;20.30;;
55497;SDS011;41357;52.806;18.268;2022-11-15T12:33:55;67.35;;;22.27;;
55497;SDS011;41357;52.806;18.268;2022-11-15T12:41:19;74.60;;;25.58;;
55497;SDS011;41357;52.806;18.268;2022-11-15T12:43:46;85.18;;;26.42;;
55497;SDS011;41357;52.806;18.268;2022-11-15T12:49:02;72.82;;;22.15;;
55497;SDS011;41357;52.806;18.268;2022-11-15T13:00:35;70.60;;;20.27;;
55497;SDS011;41357;52.806;18.268;2022-11-15T13:05:53;73.45;;;24.08;;
55497;SDS011;41357;52.806;18.268;2022-11-15T13:08:06;73.28;;;24.67;;
55497;SDS011;41357;52.806;18.268;2022-11-15T13:10:33;75.40;;;22.98;;
55497;SDS011;41357;52.806;18.268;2022-11-15T13:13:00;69.68;;;21.67;;
55497;SDS011;41357;52.806;18.268;2022-11-15T13:15:31;79.95;;;21.55;;
55497;SDS011;41357;52.806;18.268;2022-11-15T13:17:57;96.60;;;26.73;;
55497;SDS011;41357;52.806;18.268;2022-11-15T13:20:28;86.30;;;25.17;;
55497;SDS011;41357;52.806;18.268;2022-11-15T13:30:41;70.05;;;22.17;;
55497;SDS011;41357;52.806;18.268;2022-11-15T13:33:15;79.05;;;24.23;;
55497;SDS011;41357;52.806;18.268;2022-11-15T13:35:45;93.05;;;25.40;;
55497;SDS011;41357;52.806;18.268;2022-11-15T13:38:25;75.43;;;23.05;;
55497;SDS011;41357;52.806;18.268;2022-11-15T13:40:53;85.22;;;24.05;;
55497;SDS011;41357;52.806;18.268;2022-11-15T13:48:33;86.75;;;25.73;;
55497;SDS011;41357;52.806;18.268;2022-11-15T13:51:03;89.63;;;27.60;;
55497;SDS011;41357;52.806;18.268;2022-11-15T13:53:31;77.70;;;25.42;;
55497;SDS011;41357;52.806;18.268;2022-11-15T13:55:58;79.18;;;26.02;;
55497;SDS011;41357;52.806;18.268;2022-11-15T13:58:25;76.60;;;24.83;;
55497;SDS011;41357;52.806;18.268;2022-11-15T14:00:58;73.38;;;25.13;;
55497;SDS011;41357;52.806;18.268;2022-11-15T14:03:26;65.68;;;21.98;;
55497;SDS011;41357;52.806;18.268;2022-11-15T14:09:00;72.47;;;23.23;;
55497;SDS011;41357;52.806;18.268;2022-11-15T14:11:24;78.18;;;24.25;;
55497;SDS011;41357;52.806;18.268;2022-11-15T14:16:42;85.18;;;25.13;;
55497;SDS011;41357;52.806;18.268;2022-11-15T14:19:51;66.35;;;21.40;;
55497;SDS011;41357;52.806;18.268;2022-11-15T14:27:42;73.03;;;24.52;;
55497;SDS011;41357;52.806;18.268;2022-11-15T14:30:13;71.97;;;20.95;;
55497;SDS011;41357;52.806;18.268;2022-11-15T14:32:46;86.60;;;22.93;;
55497;SDS011;41357;52.806;18.268;2022-11-15T14:35:17;69.28;;;21.38;;
55497;SDS011;41357;52.806;18.268;2022-11-15T14:37:44;99.38;;;26.35;;
55497;SDS011;41357;52.806;18.268;2022-11-15T14:40:12;91.43;;;24.85;;
55497;SDS011;41357;52.806;18.268;2022-11-15T14:42:39;84.18;;;21.35;;
55497;SDS011;41357;52.806;18.268;2022-11-15T14:45:10;73.75;;;22.95;;
55497;SDS011;41357;52.806;18.268;2022-11-15T14:47:38;71.07;;;22.02;;
55497;SDS011;41357;52.806;18.268;2022-11-15T14:50:04;66.63;;;20.70;;
55497;SDS011;41357;52.806;18.268;2022-11-15T14:52:31;73.03;;;27.83;;
55497;SDS011;41357;52.806;18.268;2022-11-15T14:55:02;67.32;;;23.25;;
55497;SDS011;41357;52.806;18.268;2022-11-15T14:57:29;64.63;;;20.60;;
55497;SDS011;41357;52.806;18.268;2022-11-15T14:59:55;61.72;;;20.48;;
55497;SDS011;41357;52.806;18.268;2022-11-15T15:02:22;78.75;;;27.52;;
55497;SDS011;41357;52.806;18.268;2022-11-15T15:04:49;85.63;;;34.65;;
55497;SDS011;41357;52.806;18.268;2022-11-15T15:07:16;75.50;;;23.92;;
55497;SDS011;41357;52.806;18.268;2022-11-15T15:09:42;82.60;;;25.83;;
55497;SDS011;41357;52.806;18.268;2022-11-15T15:12:16;89.00;;;25.88;;
55497;SDS011;41357;52.806;18.268;2022-11-15T15:14:42;75.70;;;24.88;;
55497;SDS011;41357;52.806;18.268;2022-11-15T15:17:08;93.20;;;25.88;;
55497;SDS011;41357;52.806;18.268;2022-11-15T15:19:35;82.82;;;23.83;;
55497;SDS011;41357;52.806;18.268;2022-11-15T15:22:01;76.63;;;21.27;;
55497;SDS011;41357;52.806;18.268;2022-11-15T15:24:27;89.25;;;27.00;;
55497;SDS011;41357;52.806;18.268;2022-11-15T15:26:53;80.95;;;24.50;;
55497;SDS011;41357;52.806;18.268;2022-11-15T15:29:19;67.40;;;20.67;;
55497;SDS011;41357;52.806;18.268;2022-11-15T15:31:45;65.90;;;22.98;;
55497;SDS011;41357;52.806;18.268;2022-11-15T15:34:12;72.05;;;21.88;;
55497;SDS011;41357;52.806;18.268;2022-11-15T15:36:38;75.07;;;22.92;;
55497;SDS011;41357;52.806;18.268;2022-11-15T15:39:04;72.55;;;21.88;;
55497;SDS011;41357;52.806;18.268;2022-11-15T15:41:31;114.25;;;24.33;;
55497;SDS011;41357;52.806;18.268;2022-11-15T15:43:57;91.07;;;25.48;;
55497;SDS011;41357;52.806;18.268;2022-11-15T15:46:23;79.90;;;24.48;;
55497;SDS011;41357;52.806;18.268;2022-11-15T15:48:50;75.22;;;20.77;;
55497;SDS011;41357;52.806;18.268;2022-11-15T15:51:16;71.32;;;20.92;;
55497;SDS011;41357;52.806;18.268;2022-11-15T15:53:42;47.58;;;17.42;;
55497;SDS011;41357;52.806;18.268;2022-11-15T15:56:08;60.63;;;19.58;;
55497;SDS011;41357;52.806;18.268;2022-11-15T15:58:34;61.97;;;18.17;;
55497;SDS011;41357;52.806;18.268;2022-11-15T16:01:01;72.88;;;18.55;;
55497;SDS011;41357;52.806;18.268;2022-11-15T16:03:27;58.53;;;16.92;;
55497;SDS011;41357;52.806;18.268;2022-11-15T16:05:53;58.60;;;18.38;;
55497;SDS011;41357;52.806;18.268;2022-11-15T16:08:23;53.78;;;19.15;;
55497;SDS011;41357;52.806;18.268;2022-11-15T16:10:51;56.88;;;16.45;;
55497;SDS011;41357;52.806;18.268;2022-11-15T16:13:17;51.03;;;17.08;;
55497;SDS011;41357;52.806;18.268;2022-11-15T16:15:43;54.83;;;16.27;;
55497;SDS011;41357;52.806;18.268;2022-11-15T16:18:15;54.53;;;16.73;;
55497;SDS011;41357;52.806;18.268;2022-11-15T16:23:12;61.28;;;20.40;;
55497;SDS011;41357;52.806;18.268;2022-11-15T16:28:16;80.10;;;25.55;;
55497;SDS011;41357;52.806;18.268;2022-11-15T16:30:42;86.68;;;25.10;;
55497;SDS011;41357;52.806;18.268;2022-11-15T16:33:09;65.10;;;23.13;;
55497;SDS011;41357;52.806;18.268;2022-11-15T16:35:35;66.20;;;22.50;;
55497;SDS011;41357;52.806;18.268;2022-11-15T16:38:01;53.65;;;17.98;;
55497;SDS011;41357;52.806;18.268;2022-11-15T16:40:32;55.85;;;17.88;;
55497;SDS011;41357;52.806;18.268;2022-11-15T16:42:58;60.03;;;17.80;;